Decoded Metar for EPSC (SZCZECIN in POLAND) (IATA:SZZ) | Meteo·Mobile Aviation Weather
aviador You're here:

EPSC Decoded Metar

SZCZECIN in POLAND
Report Time2019-10-19 22:30:00
UTC Time2019-10-19 22:41:27
Flight Rules vfr VFR
Wind140° at 09 kt
W.Decomp.*RWY 13: 8.9 kt HW 1.1 kt RCW
Visibility9999 m
Phenomena:N/A
Clouds:N/A
Expected CloudBase > 400 ft AGL from Temp-Dew spread
CeilingNone
Temp11°C (ISA -4)
Dew Point10°C (94% RH)
AAT7.8°C
QNH1010 hPa
Density Alt-197 ft
Elevation10 ft
Report Wrong Elevation
Raw Report
METAR EPSC 192230Z 14009KT CAVOK 11/10 Q1010 =

Extra information for EPSC:More info

Metar Taf Metar & Taf Last 4 Metars F.Rules Stats Wind Profile Meteogram Temp Stats Airport Information Weather charts Add Link Nearby VenuesMetar ALERT Operation Metar Decoded Social comments